sensor_id;sensor_type;location;lat;lon;timestamp;pressure;altitude;pressure_sealevel;temperature;humidity
60061;BME280;45933;51.336;12.612;2024-02-04T00:00:03;100273.00;;;10.45;69.98
60061;BME280;45933;51.336;12.612;2024-02-04T00:02:30;100286.06;;;10.39;70.46
60061;BME280;45933;51.336;12.612;2024-02-04T00:04:55;100267.78;;;10.42;70.48
60061;BME280;45933;51.336;12.612;2024-02-04T00:07:21;100275.59;;;10.42;70.28
60061;BME280;45933;51.336;12.612;2024-02-04T00:09:46;100275.63;;;10.44;70.45
60061;BME280;45933;51.336;12.612;2024-02-04T00:12:11;100270.41;;;10.44;70.12
60061;BME280;45933;51.336;12.612;2024-02-04T00:14:37;100283.44;;;10.42;70.45
60061;BME280;45933;51.336;12.612;2024-02-04T00:17:02;100284.28;;;10.43;70.27
60061;BME280;45933;51.336;12.612;2024-02-04T00:19:27;100280.84;;;10.44;69.94
60061;BME280;45933;51.336;12.612;2024-02-04T00:21:53;100282.56;;;10.42;70.38
60061;BME280;45933;51.336;12.612;2024-02-04T00:24:18;100269.53;;;10.40;70.45
60061;BME280;45933;51.336;12.612;2024-02-04T00:26:46;100267.78;;;10.42;69.94
60061;BME280;45933;51.336;12.612;2024-02-04T00:29:12;100266.06;;;10.40;70.37
60061;BME280;45933;51.336;12.612;2024-02-04T00:31:37;100253.03;;;10.41;70.76
60061;BME280;45933;51.336;12.612;2024-02-04T00:34:02;100257.38;;;10.41;70.46
60061;BME280;45933;51.336;12.612;2024-02-04T00:36:28;100260.00;;;10.39;70.53
60061;BME280;45933;51.336;12.612;2024-02-04T00:38:53;100261.72;;;10.40;70.18
60061;BME280;45933;51.336;12.612;2024-02-04T00:41:18;100267.78;;;10.38;70.13
60061;BME280;45933;51.336;12.612;2024-02-04T00:43:44;100267.81;;;10.39;70.10
60061;BME280;45933;51.336;12.612;2024-02-04T00:46:09;100258.25;;;10.38;69.92
60061;BME280;45933;51.336;12.612;2024-02-04T00:48:36;100244.34;;;10.33;69.93
60061;BME280;45933;51.336;12.612;2024-02-04T00:51:01;100246.09;;;10.31;69.61
60061;BME280;45933;51.336;12.612;2024-02-04T00:53:26;100244.34;;;10.32;69.58
60061;BME280;45933;51.336;12.612;2024-02-04T00:55:58;100252.19;;;10.26;70.27
60061;BME280;45933;51.336;12.612;2024-02-04T00:58:23;100237.41;;;10.21;70.46
60061;BME280;45933;51.336;12.612;2024-02-04T01:00:49;100232.19;;;10.20;70.23
60061;BME280;45933;51.336;12.612;2024-02-04T01:03:14;100241.75;;;10.21;70.01
60061;BME280;45933;51.336;12.612;2024-02-04T01:05:40;100233.06;;;10.19;69.79
60061;BME280;45933;51.336;12.612;2024-02-04T01:08:05;100232.22;;;10.14;70.17
60061;BME280;45933;51.336;12.612;2024-02-04T01:10:30;100243.50;;;10.14;70.13
60061;BME280;45933;51.336;12.612;2024-02-04T01:12:55;100243.50;;;10.13;70.36
60061;BME280;45933;51.336;12.612;2024-02-04T01:15:21;100237.44;;;10.12;70.52
60061;BME280;45933;51.336;12.612;2024-02-04T01:17:46;100253.06;;;10.12;70.10
60061;BME280;45933;51.336;12.612;2024-02-04T01:20:11;100246.97;;;10.10;70.17
60061;BME280;45933;51.336;12.612;2024-02-04T01:22:36;100252.19;;;10.10;70.21
60061;BME280;45933;51.336;12.612;2024-02-04T01:25:02;100233.94;;;10.13;70.05
60061;BME280;45933;51.336;12.612;2024-02-04T01:27:27;100224.41;;;10.14;69.79
60061;BME280;45933;51.336;12.612;2024-02-04T01:29:53;100239.16;;;10.13;69.44
60061;BME280;45933;51.336;12.612;2024-02-04T01:32:18;100230.47;;;10.10;69.56
60061;BME280;45933;51.336;12.612;2024-02-04T01:34:43;100223.53;;;10.13;69.49
60061;BME280;45933;51.336;12.612;2024-02-04T01:37:09;100230.50;;;10.13;69.22
60061;BME280;45933;51.336;12.612;2024-02-04T01:39:34;100216.59;;;10.12;68.99
60061;BME280;45933;51.336;12.612;2024-02-04T01:41:59;100234.81;;;10.12;68.99
60061;BME280;45933;51.336;12.612;2024-02-04T01:44:26;100225.25;;;10.10;69.43
60061;BME280;45933;51.336;12.612;2024-02-04T01:46:51;100224.38;;;10.11;69.16
60061;BME280;45933;51.336;12.612;2024-02-04T01:49:16;100232.19;;;10.11;69.25
60061;BME280;45933;51.336;12.612;2024-02-04T01:51:42;100218.31;;;10.12;69.34
60061;BME280;45933;51.336;12.612;2024-02-04T01:54:08;100207.88;;;10.12;69.25
60061;BME280;45933;51.336;12.612;2024-02-04T01:56:33;100204.41;;;10.11;69.23
60061;BME280;45933;51.336;12.612;2024-02-04T01:58:59;100206.19;;;10.12;69.40
60061;BME280;45933;51.336;12.612;2024-02-04T02:01:24;100203.56;;;10.11;69.75
60061;BME280;45933;51.336;12.612;2024-02-04T02:03:51;100213.09;;;10.10;69.55
60061;BME280;45933;51.336;12.612;2024-02-04T02:06:17;100222.66;;;10.10;69.68
60061;BME280;45933;51.336;12.612;2024-02-04T02:08:42;100216.56;;;10.06;70.05
60061;BME280;45933;51.336;12.612;2024-02-04T02:11:21;100209.63;;;10.11;69.48
60061;BME280;45933;51.336;12.612;2024-02-04T02:13:51;100221.78;;;10.06;70.03
60061;BME280;45933;51.336;12.612;2024-02-04T02:16:22;100213.97;;;10.05;70.10
60061;BME280;45933;51.336;12.612;2024-02-04T02:18:52;100227.88;;;10.04;70.09
60061;BME280;45933;51.336;12.612;2024-02-04T02:21:35;100217.47;;;10.08;70.00
60061;BME280;45933;51.336;12.612;2024-02-04T02:26:53;100218.34;;;10.04;70.01
60061;BME280;45933;51.336;12.612;2024-02-04T02:29:18;100203.56;;;10.02;70.12
60061;BME280;45933;51.336;12.612;2024-02-04T02:31:44;100209.66;;;10.04;70.18
60061;BME280;45933;51.336;12.612;2024-02-04T02:34:11;100207.03;;;10.04;70.34
60061;BME280;45933;51.336;12.612;2024-02-04T02:37:11;100206.19;;;10.12;70.02
60061;BME280;45933;51.336;12.612;2024-02-04T02:40:05;100207.91;;;10.10;70.37
60061;BME280;45933;51.336;12.612;2024-02-04T02:42:33;100207.03;;;10.07;69.92
60061;BME280;45933;51.336;12.612;2024-02-04T02:45:00;100214.84;;;10.05;70.41
60061;BME280;45933;51.336;12.612;2024-02-04T02:47:26;100214.84;;;10.07;70.12
60061;BME280;45933;51.336;12.612;2024-02-04T02:49:54;100224.41;;;10.08;70.64
60061;BME280;45933;51.336;12.612;2024-02-04T02:52:21;100222.69;;;10.04;70.30
60061;BME280;45933;51.336;12.612;2024-02-04T02:54:46;100226.16;;;10.07;70.23
60061;BME280;45933;51.336;12.612;2024-02-04T02:57:12;100226.13;;;10.06;70.31
60061;BME280;45933;51.336;12.612;2024-02-04T02:59:37;100227.00;;;10.06;69.99
60061;BME280;45933;51.336;12.612;2024-02-04T03:02:02;100207.91;;;10.04;70.00
60061;BME280;45933;51.336;12.612;2024-02-04T03:04:27;100220.06;;;10.01;69.67
60061;BME280;45933;51.336;12.612;2024-02-04T03:06:53;100223.53;;;9.95;69.96
60061;BME280;45933;51.336;12.612;2024-02-04T03:09:18;100225.31;;;9.91;69.84
60061;BME280;45933;51.336;12.612;2024-02-04T03:11:43;100217.50;;;9.87;70.15
60061;BME280;45933;51.336;12.612;2024-02-04T03:14:08;100228.75;;;9.83;70.29
60061;BME280;45933;51.336;12.612;2024-02-04T03:16:34;100224.41;;;9.79;70.19
60061;BME280;45933;51.336;12.612;2024-02-04T03:18:59;100235.72;;;9.78;70.03
60061;BME280;45933;51.336;12.612;2024-02-04T03:21:24;100228.75;;;9.74;70.67
60061;BME280;45933;51.336;12.612;2024-02-04T03:23:49;100222.69;;;9.68;70.71
60061;BME280;45933;51.336;12.612;2024-02-04T03:26:18;100226.16;;;9.71;70.84
60061;BME280;45933;51.336;12.612;2024-02-04T03:28:44;100227.03;;;9.66;71.21
60061;BME280;45933;51.336;12.612;2024-02-04T03:31:09;100211.41;;;9.65;71.21
60061;BME280;45933;51.336;12.612;2024-02-04T03:33:34;100193.19;;;9.68;71.33
60061;BME280;45933;51.336;12.612;2024-02-04T03:36:00;100186.25;;;9.67;71.19
60061;BME280;45933;51.336;12.612;2024-02-04T03:38:25;100195.78;;;9.66;71.33
60061;BME280;45933;51.336;12.612;2024-02-04T03:40:51;100188.84;;;9.68;71.17
60061;BME280;45933;51.336;12.612;2024-02-04T03:43:17;100189.72;;;9.71;71.21
60061;BME280;45933;51.336;12.612;2024-02-04T03:45:42;100190.59;;;9.73;71.09
60061;BME280;45933;51.336;12.612;2024-02-04T03:48:07;100185.38;;;9.74;70.71
60061;BME280;45933;51.336;12.612;2024-02-04T03:50:32;100198.38;;;9.74;71.11
60061;BME280;45933;51.336;12.612;2024-02-04T03:52:58;100195.78;;;9.80;70.78
60061;BME280;45933;51.336;12.612;2024-02-04T03:55:23;100185.38;;;9.79;70.75
60061;BME280;45933;51.336;12.612;2024-02-04T03:57:48;100187.09;;;9.80;70.46
60061;BME280;45933;51.336;12.612;2024-02-04T04:00:14;100193.19;;;9.83;70.90
60061;BME280;45933;51.336;12.612;2024-02-04T04:02:40;100195.78;;;9.83;70.63
60061;BME280;45933;51.336;12.612;2024-02-04T04:05:06;100189.69;;;9.84;70.69
60061;BME280;45933;51.336;12.612;2024-02-04T04:07:31;100193.16;;;9.85;70.84
60061;BME280;45933;51.336;12.612;2024-02-04T04:09:57;100181.00;;;9.90;70.39
60061;BME280;45933;51.336;12.612;2024-02-04T04:12:22;100181.03;;;9.87;70.62
60061;BME280;45933;51.336;12.612;2024-02-04T04:14:47;100180.16;;;9.88;70.35
60061;BME280;45933;51.336;12.612;2024-02-04T04:17:12;100174.09;;;9.87;70.37
60061;BME280;45933;51.336;12.612;2024-02-04T04:19:39;100167.16;;;9.88;70.29
60061;BME280;45933;51.336;12.612;2024-02-04T04:22:04;100167.13;;;9.85;70.49
60061;BME280;45933;51.336;12.612;2024-02-04T04:24:30;100179.28;;;9.89;70.20
60061;BME280;45933;51.336;12.612;2024-02-04T04:26:55;100173.22;;;9.82;70.42
60061;BME280;45933;51.336;12.612;2024-02-04T04:29:20;100177.53;;;9.89;69.93
60061;BME280;45933;51.336;12.612;2024-02-04T04:31:46;100185.34;;;9.91;69.87
60061;BME280;45933;51.336;12.612;2024-02-04T04:34:11;100179.28;;;9.92;70.16
60061;BME280;45933;51.336;12.612;2024-02-04T04:36:36;100189.69;;;9.86;70.45
60061;BME280;45933;51.336;12.612;2024-02-04T04:39:01;100184.50;;;9.84;70.48
60061;BME280;45933;51.336;12.612;2024-02-04T04:41:27;100167.16;;;9.88;70.54
60061;BME280;45933;51.336;12.612;2024-02-04T04:43:52;100166.28;;;9.87;70.54
60061;BME280;45933;51.336;12.612;2024-02-04T04:46:17;100167.16;;;9.86;70.47
60061;BME280;45933;51.336;12.612;2024-02-04T04:48:43;100159.34;;;9.86;70.72
60061;BME280;45933;51.336;12.612;2024-02-04T04:51:08;100173.19;;;9.85;70.57
60061;BME280;45933;51.336;12.612;2024-02-04T04:53:34;100155.84;;;9.89;70.57
60061;BME280;45933;51.336;12.612;2024-02-04T04:56:27;100146.31;;;9.92;70.51
60061;BME280;45933;51.336;12.612;2024-02-04T04:58:52;100154.13;;;9.82;71.17
60061;BME280;45933;51.336;12.612;2024-02-04T05:01:17;100148.91;;;9.85;70.88
60061;BME280;45933;51.336;12.612;2024-02-04T05:03:43;100151.53;;;9.82;71.25
60061;BME280;45933;51.336;12.612;2024-02-04T05:06:09;100154.13;;;9.79;71.57
60061;BME280;45933;51.336;12.612;2024-02-04T05:08:34;100144.59;;;9.76;71.81
60061;BME280;45933;51.336;12.612;2024-02-04T05:10:59;100142.84;;;9.78;71.92
60061;BME280;45933;51.336;12.612;2024-02-04T05:13:24;100128.97;;;9.72;72.22
60061;BME280;45933;51.336;12.612;2024-02-04T05:15:50;100135.91;;;9.77;71.87
60061;BME280;45933;51.336;12.612;2024-02-04T05:18:15;100127.22;;;9.78;71.59
60061;BME280;45933;51.336;12.612;2024-02-04T05:20:40;100132.44;;;9.75;72.27
60061;BME280;45933;51.336;12.612;2024-02-04T05:23:06;100122.03;;;9.77;72.22
60061;BME280;45933;51.336;12.612;2024-02-04T05:25:31;100121.19;;;9.76;72.22
60061;BME280;45933;51.336;12.612;2024-02-04T05:27:56;100118.56;;;9.78;71.99
60061;BME280;45933;51.336;12.612;2024-02-04T05:30:22;100133.31;;;9.77;72.35
60061;BME280;45933;51.336;12.612;2024-02-04T05:32:47;100120.28;;;9.79;71.98
60061;BME280;45933;51.336;12.612;2024-02-04T05:35:12;100116.81;;;9.81;71.89
60061;BME280;45933;51.336;12.612;2024-02-04T05:37:37;100103.78;;;9.84;72.05
60061;BME280;45933;51.336;12.612;2024-02-04T05:40:03;100104.66;;;9.83;72.24
60061;BME280;45933;51.336;12.612;2024-02-04T05:42:29;100103.78;;;9.84;72.24
60061;BME280;45933;51.336;12.612;2024-02-04T05:44:56;100104.66;;;9.85;72.13
60061;BME280;45933;51.336;12.612;2024-02-04T05:47:22;100102.06;;;9.86;72.08
60061;BME280;45933;51.336;12.612;2024-02-04T05:49:47;100101.19;;;9.83;72.47
60061;BME280;45933;51.336;12.612;2024-02-04T05:52:12;100105.53;;;9.82;72.15
60061;BME280;45933;51.336;12.612;2024-02-04T05:54:38;100109.84;;;9.80;72.64
60061;BME280;45933;51.336;12.612;2024-02-04T05:57:04;100100.34;;;9.82;72.44
60061;BME280;45933;51.336;12.612;2024-02-04T05:59:30;100082.09;;;9.87;72.21
60061;BME280;45933;51.336;12.612;2024-02-04T06:01:55;100083.84;;;9.83;72.28
60061;BME280;45933;51.336;12.612;2024-02-04T06:04:20;100067.34;;;9.80;72.72
60061;BME280;45933;51.336;12.612;2024-02-04T06:06:46;100076.91;;;9.79;72.57
60061;BME280;45933;51.336;12.612;2024-02-04T06:09:11;100076.03;;;9.80;72.50
60061;BME280;45933;51.336;12.612;2024-02-04T06:11:36;100085.59;;;9.78;72.85
60061;BME280;45933;51.336;12.612;2024-02-04T06:14:01;100082.97;;;9.81;72.38
60061;BME280;45933;51.336;12.612;2024-02-04T06:16:27;100077.78;;;9.81;72.64
60061;BME280;45933;51.336;12.612;2024-02-04T06:18:52;100078.63;;;9.82;72.66
60061;BME280;45933;51.336;12.612;2024-02-04T06:21:20;100060.38;;;9.85;72.28
60061;BME280;45933;51.336;12.612;2024-02-04T06:23:45;100071.69;;;9.87;72.55
60061;BME280;45933;51.336;12.612;2024-02-04T06:26:11;100076.88;;;9.91;72.30
60061;BME280;45933;51.336;12.612;2024-02-04T06:28:36;100078.59;;;9.89;72.64
60061;BME280;45933;51.336;12.612;2024-02-04T06:31:01;100067.31;;;9.89;72.65
60061;BME280;45933;51.336;12.612;2024-02-04T06:33:27;100069.94;;;9.92;72.25
60061;BME280;45933;51.336;12.612;2024-02-04T06:35:52;100062.13;;;9.92;72.37
60061;BME280;45933;51.336;12.612;2024-02-04T06:38:18;100062.09;;;9.95;72.27
60061;BME280;45933;51.336;12.612;2024-02-04T06:40:43;100079.44;;;9.96;72.13
60061;BME280;45933;51.336;12.612;2024-02-04T06:43:08;100085.53;;;10.00;72.32
60061;BME280;45933;51.336;12.612;2024-02-04T06:45:33;100079.47;;;9.98;72.32
60061;BME280;45933;51.336;12.612;2024-02-04T06:47:59;100054.28;;;9.98;72.42
60061;BME280;45933;51.336;12.612;2024-02-04T06:50:24;100061.22;;;9.98;72.45
60061;BME280;45933;51.336;12.612;2024-02-04T06:52:49;100062.09;;;9.98;72.56
60061;BME280;45933;51.336;12.612;2024-02-04T06:55:15;100059.47;;;10.03;72.49
60061;BME280;45933;51.336;12.612;2024-02-04T06:57:40;100057.72;;;10.08;72.16
60061;BME280;45933;51.336;12.612;2024-02-04T07:00:06;100053.41;;;10.04;72.49
60061;BME280;45933;51.336;12.612;2024-02-04T07:02:33;100063.78;;;10.10;72.47
60061;BME280;45933;51.336;12.612;2024-02-04T07:04:59;100059.44;;;10.13;72.10
60061;BME280;45933;51.336;12.612;2024-02-04T07:07:24;100049.88;;;10.14;71.86
60061;BME280;45933;51.336;12.612;2024-02-04T07:09:49;100043.78;;;10.12;72.28
60061;BME280;45933;51.336;12.612;2024-02-04T07:12:14;100045.53;;;10.14;72.00
60061;BME280;45933;51.336;12.612;2024-02-04T07:14:40;100062.91;;;10.12;72.03
60061;BME280;45933;51.336;12.612;2024-02-04T07:17:05;100059.44;;;10.09;72.34
60061;BME280;45933;51.336;12.612;2024-02-04T07:19:30;100047.25;;;10.20;71.61
60061;BME280;45933;51.336;12.612;2024-02-04T07:21:55;100044.63;;;10.21;71.76
60061;BME280;45933;51.336;12.612;2024-02-04T07:24:21;100048.97;;;10.21;71.86
60061;BME280;45933;51.336;12.612;2024-02-04T07:26:46;100063.72;;;10.22;71.71
60061;BME280;45933;51.336;12.612;2024-02-04T07:29:14;100057.66;;;10.23;71.77
60061;BME280;45933;51.336;12.612;2024-02-04T07:31:39;100055.06;;;10.25;71.73
60061;BME280;45933;51.336;12.612;2024-02-04T07:34:05;100044.66;;;10.25;71.86
60061;BME280;45933;51.336;12.612;2024-02-04T07:36:30;100042.00;;;10.31;71.55
60061;BME280;45933;51.336;12.612;2024-02-04T07:38:56;100058.53;;;10.30;72.01
60061;BME280;45933;51.336;12.612;2024-02-04T07:41:21;100049.81;;;10.34;71.44
60061;BME280;45933;51.336;12.612;2024-02-04T07:43:46;100033.31;;;10.33;71.60
60061;BME280;45933;51.336;12.612;2024-02-04T07:46:13;100042.84;;;10.37;71.37
60061;BME280;45933;51.336;12.612;2024-02-04T07:48:38;100043.72;;;10.36;71.43
60061;BME280;45933;51.336;12.612;2024-02-04T07:51:04;100046.28;;;10.42;71.25
60061;BME280;45933;51.336;12.612;2024-02-04T07:53:29;100035.91;;;10.39;71.43
60061;BME280;45933;51.336;12.612;2024-02-04T07:55:54;100035.88;;;10.44;71.46
60061;BME280;45933;51.336;12.612;2024-02-04T07:58:20;100033.28;;;10.44;71.45
60061;BME280;45933;51.336;12.612;2024-02-04T08:00:45;100047.13;;;10.51;71.12
60061;BME280;45933;51.336;12.612;2024-02-04T08:03:10;100036.66;;;10.54;70.54
60061;BME280;45933;51.336;12.612;2024-02-04T08:05:35;100059.25;;;10.55;71.05
60061;BME280;45933;51.336;12.612;2024-02-04T08:08:01;100049.69;;;10.54;71.12
60061;BME280;45933;51.336;12.612;2024-02-04T08:10:27;100041.84;;;10.58;70.99
60061;BME280;45933;51.336;12.612;2024-02-04T08:12:52;100041.81;;;10.63;70.84
60061;BME280;45933;51.336;12.612;2024-02-04T08:15:19;100052.22;;;10.64;70.66
60061;BME280;45933;51.336;12.612;2024-02-04T08:17:44;100047.03;;;10.66;70.53
60061;BME280;45933;51.336;12.612;2024-02-04T08:20:10;100059.22;;;10.62;71.04
60061;BME280;45933;51.336;12.612;2024-02-04T08:22:35;100051.38;;;10.67;70.61
60061;BME280;45933;51.336;12.612;2024-02-04T08:25:00;100038.31;;;10.68;70.76
60061;BME280;45933;51.336;12.612;2024-02-04T08:27:27;100034.84;;;10.66;70.88
60061;BME280;45933;51.336;12.612;2024-02-04T08:29:52;100039.22;;;10.63;70.73
60061;BME280;45933;51.336;12.612;2024-02-04T08:32:17;100039.16;;;10.69;70.66
60061;BME280;45933;51.336;12.612;2024-02-04T08:34:43;100039.16;;;10.69;70.38
60061;BME280;45933;51.336;12.612;2024-02-04T08:37:08;100027.00;;;10.69;70.16
60061;BME280;45933;51.336;12.612;2024-02-04T08:39:33;100032.19;;;10.72;70.11
60061;BME280;45933;51.336;12.612;2024-02-04T08:41:59;100027.84;;;10.74;70.22
60061;BME280;45933;51.336;12.612;2024-02-04T08:44:24;100022.66;;;10.70;70.32
60061;BME280;45933;51.336;12.612;2024-02-04T08:46:49;100029.56;;;10.74;70.41
60061;BME280;45933;51.336;12.612;2024-02-04T08:49:14;100039.97;;;10.76;70.34
60061;BME280;45933;51.336;12.612;2024-02-04T08:51:40;100039.09;;;10.81;70.58
60061;BME280;45933;51.336;12.612;2024-02-04T08:54:05;100026.00;;;10.86;70.34
60061;BME280;45933;51.336;12.612;2024-02-04T08:56:30;100027.75;;;10.88;69.86
60061;BME280;45933;51.336;12.612;2024-02-04T08:58:56;100025.97;;;10.90;69.50
60061;BME280;45933;51.336;12.612;2024-02-04T09:01:21;100049.47;;;10.89;69.32
60061;BME280;45933;51.336;12.612;2024-02-04T09:03:47;100019.88;;;10.93;69.08
60061;BME280;45933;51.336;12.612;2024-02-04T09:06:12;100029.41;;;10.95;68.79
60061;BME280;45933;51.336;12.612;2024-02-04T09:08:37;100022.47;;;10.97;68.50
60061;BME280;45933;51.336;12.612;2024-02-04T09:11:03;100045.06;;;10.98;68.43
60061;BME280;45933;51.336;12.612;2024-02-04T09:13:28;100044.19;;;10.98;68.41
60061;BME280;45933;51.336;12.612;2024-02-04T09:15:53;100032.00;;;11.00;68.31
60061;BME280;45933;51.336;12.612;2024-02-04T09:18:19;100027.66;;;10.99;68.60
60061;BME280;45933;51.336;12.612;2024-02-04T09:20:45;100024.19;;;10.95;68.75
60061;BME280;45933;51.336;12.612;2024-02-04T09:23:10;100037.19;;;11.02;69.03
60061;BME280;45933;51.336;12.612;2024-02-04T09:25:35;100029.41;;;10.95;69.07
60061;BME280;45933;51.336;12.612;2024-02-04T09:28:00;100033.75;;;10.96;69.12
60061;BME280;45933;51.336;12.612;2024-02-04T09:30:26;100042.47;;;10.97;69.16
60061;BME280;45933;51.336;12.612;2024-02-04T09:32:51;100030.28;;;10.97;69.17
60061;BME280;45933;51.336;12.612;2024-02-04T09:35:17;100023.31;;;10.98;69.45
60061;BME280;45933;51.336;12.612;2024-02-04T09:37:42;100024.19;;;10.98;69.51
60061;BME280;45933;51.336;12.612;2024-02-04T09:40:08;100031.16;;;10.95;70.17
60061;BME280;45933;51.336;12.612;2024-02-04T09:42:33;100028.56;;;10.93;70.12
60061;BME280;45933;51.336;12.612;2024-02-04T09:44:59;100038.13;;;10.93;70.21
60061;BME280;45933;51.336;12.612;2024-02-04T09:47:25;100032.03;;;10.94;70.21
60061;BME280;45933;51.336;12.612;2024-02-04T09:49:51;100025.13;;;10.88;70.59
60061;BME280;45933;51.336;12.612;2024-02-04T09:52:24;100023.41;;;10.84;70.78
60061;BME280;45933;51.336;12.612;2024-02-04T09:54:57;100027.78;;;10.84;70.85
60061;BME280;45933;51.336;12.612;2024-02-04T09:57:24;100029.53;;;10.82;70.82
60061;BME280;45933;51.336;12.612;2024-02-04T09:59:49;100018.22;;;10.80;71.17
60061;BME280;45933;51.336;12.612;2024-02-04T10:02:15;100012.16;;;10.79;71.31
60061;BME280;45933;51.336;12.612;2024-02-04T10:04:40;100010.44;;;10.78;71.04
60061;BME280;45933;51.336;12.612;2024-02-04T10:07:06;100009.59;;;10.74;71.54
60061;BME280;45933;51.336;12.612;2024-02-04T10:09:32;100003.47;;;10.76;71.43
60061;BME280;45933;51.336;12.612;2024-02-04T10:11:57;100011.34;;;10.72;71.64
60061;BME280;45933;51.336;12.612;2024-02-04T10:14:22;100001.81;;;10.68;71.80
60061;BME280;45933;51.336;12.612;2024-02-04T10:16:49;100005.25;;;10.73;71.53
60061;BME280;45933;51.336;12.612;2024-02-04T10:19:14;100021.78;;;10.69;71.70
60061;BME280;45933;51.336;12.612;2024-02-04T10:21:39;99998.38;;;10.66;72.02
60061;BME280;45933;51.336;12.612;2024-02-04T10:24:07;99986.22;;;10.65;72.42
60061;BME280;45933;51.336;12.612;2024-02-04T10:26:32;99980.16;;;10.62;72.58
60061;BME280;45933;51.336;12.612;2024-02-04T10:29:02;99971.44;;;10.63;72.74
60061;BME280;45933;51.336;12.612;2024-02-04T10:31:27;99980.09;;;10.65;72.87
60061;BME280;45933;51.336;12.612;2024-02-04T10:33:54;99983.59;;;10.67;72.68
60061;BME280;45933;51.336;12.612;2024-02-04T10:36:19;99965.31;;;10.68;72.97
60061;BME280;45933;51.336;12.612;2024-02-04T10:38:45;99958.34;;;10.69;72.94
60061;BME280;45933;51.336;12.612;2024-02-04T10:41:17;99947.91;;;10.73;72.88
60061;BME280;45933;51.336;12.612;2024-02-04T10:43:44;99955.75;;;10.72;73.21
60061;BME280;45933;51.336;12.612;2024-02-04T10:46:13;99960.88;;;10.81;72.36
60061;BME280;45933;51.336;12.612;2024-02-04T10:48:41;99939.13;;;10.81;72.63
60061;BME280;45933;51.336;12.612;2024-02-04T10:51:15;99940.91;;;10.79;72.61
60061;BME280;45933;51.336;12.612;2024-02-04T10:53:44;99954.78;;;10.81;72.35
60061;BME280;45933;51.336;12.612;2024-02-04T10:56:20;99940.84;;;10.86;72.15
60061;BME280;45933;51.336;12.612;2024-02-04T10:58:47;99941.72;;;10.87;72.06
60061;BME280;45933;51.336;12.612;2024-02-04T11:01:13;99931.28;;;10.87;72.21
60061;BME280;45933;51.336;12.612;2024-02-04T11:03:39;99939.09;;;10.87;72.02
60061;BME280;45933;51.336;12.612;2024-02-04T11:06:07;99928.66;;;10.87;71.65
60061;BME280;45933;51.336;12.612;2024-02-04T11:08:32;99917.38;;;10.85;71.94
60061;BME280;45933;51.336;12.612;2024-02-04T11:10:58;99917.38;;;10.85;71.63
60061;BME280;45933;51.336;12.612;2024-02-04T11:13:23;99920.88;;;10.82;71.60
60061;BME280;45933;51.336;12.612;2024-02-04T11:15:50;99920.88;;;10.84;71.50
60061;BME280;45933;51.336;12.612;2024-02-04T11:18:42;99920.84;;;10.85;71.80
60061;BME280;45933;51.336;12.612;2024-02-04T11:21:33;99923.44;;;10.88;71.85
60061;BME280;45933;51.336;12.612;2024-02-04T11:24:22;99927.78;;;10.88;71.71
60061;BME280;45933;51.336;12.612;2024-02-04T11:26:54;99925.19;;;10.85;71.45
60061;BME280;45933;51.336;12.612;2024-02-04T11:29:22;99926.97;;;10.80;71.75
60061;BME280;45933;51.336;12.612;2024-02-04T11:31:47;99909.56;;;10.83;71.70
60061;BME280;45933;51.336;12.612;2024-02-04T11:34:13;99922.63;;;10.80;71.47
60061;BME280;45933;51.336;12.612;2024-02-04T11:36:39;99910.47;;;10.79;71.34
60061;BME280;45933;51.336;12.612;2024-02-04T11:39:17;99916.44;;;10.90;71.10
60061;BME280;45933;51.336;12.612;2024-02-04T11:41:46;99918.22;;;10.85;71.26
60061;BME280;45933;51.336;12.612;2024-02-04T11:44:12;99904.38;;;10.82;71.30
60061;BME280;45933;51.336;12.612;2024-02-04T11:46:37;99909.63;;;10.77;71.30
60061;BME280;45933;51.336;12.612;2024-02-04T11:49:03;99909.53;;;10.85;71.24
60061;BME280;45933;51.336;12.612;2024-02-04T11:51:29;99906.94;;;10.85;71.03
60061;BME280;45933;51.336;12.612;2024-02-04T11:53:55;99899.97;;;10.85;70.98
60061;BME280;45933;51.336;12.612;2024-02-04T11:56:21;99910.34;;;10.91;71.06
60061;BME280;45933;51.336;12.612;2024-02-04T11:58:46;99897.31;;;10.91;70.88
60061;BME280;45933;51.336;12.612;2024-02-04T12:01:12;99899.91;;;10.94;70.65
60061;BME280;45933;51.336;12.612;2024-02-04T12:03:37;99884.25;;;10.94;70.93
60061;BME280;45933;51.336;12.612;2024-02-04T12:06:03;99903.34;;;10.98;70.84
60061;BME280;45933;51.336;12.612;2024-02-04T12:08:33;99892.91;;;10.98;70.98
60061;BME280;45933;51.336;12.612;2024-02-04T12:11:00;99892.06;;;10.96;71.15
60061;BME280;45933;51.336;12.612;2024-02-04T12:13:27;99881.63;;;10.97;71.12
60061;BME280;45933;51.336;12.612;2024-02-04T12:15:53;99887.69;;;10.99;70.97
60061;BME280;45933;51.336;12.612;2024-02-04T12:18:18;99886.78;;;11.02;70.70
60061;BME280;45933;51.336;12.612;2024-02-04T12:20:45;99883.31;;;11.00;70.99
60061;BME280;45933;51.336;12.612;2024-02-04T12:23:12;99882.38;;;11.07;70.93
60061;BME280;45933;51.336;12.612;2024-02-04T12:25:37;99884.13;;;11.07;70.81
60061;BME280;45933;51.336;12.612;2024-02-04T12:28:03;99871.88;;;11.13;70.30
60061;BME280;45933;51.336;12.612;2024-02-04T12:30:30;99877.06;;;11.16;69.89
60061;BME280;45933;51.336;12.612;2024-02-04T12:32:59;99884.91;;;11.15;69.62
60061;BME280;45933;51.336;12.612;2024-02-04T12:35:28;99881.38;;;11.20;69.71
60061;BME280;45933;51.336;12.612;2024-02-04T12:37:58;99886.56;;;11.20;69.48
60061;BME280;45933;51.336;12.612;2024-02-04T12:40:28;99898.72;;;11.23;69.38
60061;BME280;45933;51.336;12.612;2024-02-04T12:42:55;99881.31;;;11.25;69.44